createdAt,value
2018-07-31T00:02:24.546Z,101992.41
2018-07-31T00:04:54.717Z,101982.91
2018-07-31T00:07:26.074Z,101989.44
2018-07-31T00:10:00.620Z,101991.80
2018-07-31T00:12:32.246Z,101989.45
2018-07-31T00:15:05.346Z,101984.17
2018-07-31T00:17:39.971Z,101988.03
2018-07-31T00:20:12.819Z,101993.73
2018-07-31T00:22:45.870Z,101986.33
2018-07-31T00:25:16.551Z,101987.51
2018-07-31T00:27:49.306Z,101988.06
2018-07-31T00:30:24.651Z,101981.19
2018-07-31T00:32:56.327Z,101984.77
2018-07-31T00:35:28.019Z,101984.23
2018-07-31T00:38:02.722Z,101975.50
2018-07-31T00:40:35.656Z,101975.34
2018-07-31T00:43:07.102Z,101979.30
2018-07-31T00:45:41.515Z,101972.25
2018-07-31T00:48:13.515Z,101973.02
2018-07-31T00:50:46.661Z,101979.50
2018-07-31T00:53:18.628Z,101984.91
2018-07-31T00:55:53.207Z,101981.63
2018-07-31T00:58:24.577Z,101981.95
2018-07-31T01:00:56.048Z,101983.94
2018-07-31T01:03:29.056Z,101990.10
2018-07-31T01:06:00.445Z,101987.55
2018-07-31T01:08:33.466Z,101983.22
2018-07-31T01:11:07.968Z,101983.00
2018-07-31T01:13:40.944Z,101982.63
2018-07-31T01:16:13.958Z,101979.36
2018-07-31T01:18:46.898Z,101971.07
2018-07-31T01:21:21.636Z,101978.02
2018-07-31T01:23:54.662Z,101975.87
2018-07-31T01:26:29.198Z,101972.98
2018-07-31T01:29:01.636Z,101968.04
2018-07-31T01:31:31.678Z,101971.39
2018-07-31T01:34:03.497Z,101965.48
2018-07-31T01:36:34.535Z,101971.11
2018-07-31T01:39:10.688Z,101969.49
2018-07-31T01:41:43.905Z,101960.75
2018-07-31T01:44:13.857Z,101967.12
2018-07-31T01:46:43.889Z,101963.38
2018-07-31T01:49:15.874Z,101964.45
2018-07-31T01:51:48.725Z,101969.58
2018-07-31T01:54:21.739Z,101967.08
2018-07-31T01:56:55.326Z,101965.52
2018-07-31T01:59:26.942Z,101953.62
2018-07-31T02:01:58.328Z,101952.72
2018-07-31T02:04:31.514Z,101950.35
2018-07-31T02:07:03.393Z,101945.65
2018-07-31T02:09:35.880Z,101940.23
2018-07-31T02:12:09.713Z,101940.70
2018-07-31T02:14:42.656Z,101933.73
2018-07-31T02:17:15.757Z,101932.52
2018-07-31T02:19:48.807Z,101928.03
2018-07-31T02:22:23.528Z,101932.20
2018-07-31T02:24:55.026Z,101933.20
2018-07-31T02:27:28.133Z,101933.02
2018-07-31T02:30:11.058Z,101935.14
2018-07-31T02:32:43.993Z,101931.55
2018-07-31T02:35:17.132Z,101935.02
2018-07-31T02:37:50.142Z,101934.04
2018-07-31T02:40:24.631Z,101940.25
2018-07-31T02:42:56.018Z,101938.05
2018-07-31T02:45:27.441Z,101941.27
2018-07-31T02:48:00.917Z,101943.38
2018-07-31T02:50:34.064Z,101937.55
2018-07-31T02:53:05.389Z,101927.67
2018-07-31T02:55:38.376Z,101924.17
2018-07-31T02:58:12.859Z,101927.67
2018-07-31T03:00:44.822Z,101931.36
2018-07-31T03:03:19.465Z,101934.40
2018-07-31T03:05:50.965Z,101928.84
2018-07-31T03:08:22.369Z,101929.48
2018-07-31T03:10:56.770Z,101933.69
2018-07-31T03:13:31.538Z,101931.08
2018-07-31T03:16:04.645Z,101931.85
2018-07-31T03:18:37.001Z,101936.06
2018-07-31T03:21:10.308Z,101934.12
2018-07-31T03:23:43.199Z,101937.02
2018-07-31T03:26:14.567Z,101937.34
2018-07-31T03:28:44.542Z,101932.77
2018-07-31T03:31:18.052Z,101930.16
2018-07-31T03:33:51.255Z,101928.10
2018-07-31T03:36:22.693Z,101936.34
2018-07-31T03:38:57.167Z,101936.16
2018-07-31T03:41:30.224Z,101940.77
2018-07-31T03:44:03.379Z,101941.52
2018-07-31T03:46:34.816Z,101940.28
2018-07-31T03:49:07.832Z,101938.84
2018-07-31T03:51:39.403Z,101937.77
2018-07-31T03:54:13.865Z,101941.52
2018-07-31T03:56:46.878Z,101938.67
2018-07-31T03:59:20.674Z,101939.37
2018-07-31T04:01:53.618Z,101947.80
2018-07-31T04:04:25.247Z,101944.11
2018-07-31T04:06:57.510Z,101947.81
2018-07-31T04:09:30.314Z,101945.91
2018-07-31T04:12:03.763Z,101940.38
2018-07-31T04:14:39.218Z,101944.59
2018-07-31T04:17:13.005Z,101936.23
2018-07-31T04:19:46.015Z,101939.49
2018-07-31T04:22:17.475Z,101942.99
2018-07-31T04:24:49.058Z,101948.13
2018-07-31T04:27:22.277Z,101948.36
2018-07-31T04:29:56.629Z,101939.55
2018-07-31T04:32:29.520Z,101941.86
2018-07-31T04:35:04.180Z,101942.05
2018-07-31T04:37:37.485Z,101947.94
2018-07-31T04:40:07.491Z,101958.08
2018-07-31T04:42:40.556Z,101966.63
2018-07-31T04:45:13.483Z,101957.91
2018-07-31T04:47:46.578Z,101957.94
2018-07-31T04:50:17.120Z,101946.86
2018-07-31T04:52:48.947Z,101936.97
2018-07-31T04:55:19.440Z,101949.55
2018-07-31T04:57:52.487Z,101948.08
2018-07-31T05:00:23.926Z,101953.54
2018-07-31T05:02:56.918Z,101948.16
2018-07-31T05:05:28.433Z,101942.48
2018-07-31T05:07:59.904Z,101937.81
2018-07-31T05:10:31.333Z,101927.11
2018-07-31T05:13:03.797Z,101915.39
2018-07-31T05:15:36.640Z,101912.45
2018-07-31T05:18:08.225Z,101917.17
2018-07-31T05:20:42.838Z,101916.03
2018-07-31T05:23:14.188Z,101917.38
2018-07-31T05:25:47.001Z,101915.43
2018-07-31T05:28:18.473Z,101911.24
2018-07-31T05:30:51.348Z,101909.23
2018-07-31T05:33:26.089Z,101896.94
2018-07-31T05:36:00.764Z,101881.82
2018-07-31T05:38:33.763Z,101865.89
2018-07-31T05:41:06.589Z,101861.52
2018-07-31T05:43:38.863Z,101870.34
2018-07-31T05:46:08.814Z,101872.67
2018-07-31T05:48:40.176Z,101865.53
2018-07-31T05:51:10.196Z,101880.52
2018-07-31T05:53:42.356Z,101896.83
2018-07-31T05:56:15.169Z,101914.95
2018-07-31T05:58:46.506Z,101932.52
2018-07-31T06:01:18.082Z,101943.51
2018-07-31T06:03:50.681Z,101925.44
2018-07-31T06:06:22.218Z,101900.03
2018-07-31T06:08:53.637Z,101887.67
2018-07-31T06:11:25.341Z,101881.58
2018-07-31T06:13:57.254Z,101869.89
2018-07-31T06:16:28.672Z,101865.59
2018-07-31T06:19:00.179Z,101858.67
2018-07-31T06:21:32.985Z,101849.12
2018-07-31T06:24:03.870Z,101834.31
2018-07-31T06:26:38.216Z,101846.16
2018-07-31T06:29:11.185Z,101827.35
2018-07-31T06:31:45.465Z,101817.44
2018-07-31T06:34:19.082Z,101801.07
2018-07-31T06:36:52.179Z,101802.52
2018-07-31T06:39:23.661Z,101797.15
2018-07-31T06:41:55.097Z,101780.47
2018-07-31T06:44:26.590Z,101793.63
2018-07-31T06:46:56.504Z,101808.59
2018-07-31T06:49:29.547Z,101838.73
2018-07-31T06:51:59.657Z,101814.09
2018-07-31T06:54:31.187Z,101800.25
2018-07-31T06:57:04.012Z,101799.07
2018-07-31T06:59:37.165Z,101802.14
2018-07-31T07:02:10.083Z,101819.40
2018-07-31T07:04:41.519Z,101813.55
2018-07-31T07:07:11.519Z,101828.91
2018-07-31T07:09:43.389Z,101828.69
2018-07-31T07:12:17.754Z,101827.39
2018-07-31T07:14:51.102Z,101823.20
2018-07-31T07:17:23.957Z,101845.19
2018-07-31T07:19:53.806Z,101843.81
2018-07-31T07:22:26.548Z,101843.48
2018-07-31T07:24:58.433Z,101869.73
2018-07-31T07:27:28.360Z,101843.80
2018-07-31T07:29:59.848Z,101829.23
2018-07-31T07:32:34.268Z,101820.06
2018-07-31T07:35:08.539Z,101832.80
2018-07-31T07:37:40.534Z,101843.06
2018-07-31T07:40:12.744Z,101850.05
2018-07-31T07:42:43.996Z,101848.17
2018-07-31T07:45:17.421Z,101849.89
2018-07-31T07:47:50.711Z,101841.50
2018-07-31T07:50:23.545Z,101847.28
2018-07-31T07:52:56.802Z,101850.23
2018-07-31T07:55:28.205Z,101846.66
2018-07-31T07:58:01.334Z,101848.45
2018-07-31T08:00:32.817Z,101858.91
2018-07-31T08:03:06.324Z,101849.04
2018-07-31T08:05:38.553Z,101867.81
2018-07-31T08:08:13.789Z,101860.90
2018-07-31T08:10:48.130Z,101848.72
2018-07-31T08:13:18.190Z,101854.57
2018-07-31T08:15:52.657Z,101849.79
2018-07-31T08:18:27.054Z,101839.20
2018-07-31T08:21:00.455Z,101827.48
2018-07-31T08:23:34.009Z,101825.72
2018-07-31T08:26:03.958Z,101828.86
2018-07-31T08:28:36.776Z,101829.45
2018-07-31T08:31:08.237Z,101823.12
2018-07-31T08:33:42.591Z,101832.98
2018-07-31T08:36:13.714Z,101822.47
2018-07-31T08:38:48.101Z,101826.68
2018-07-31T08:41:19.505Z,101833.42
2018-07-31T08:43:51.323Z,101849.19
2018-07-31T08:46:22.574Z,101859.76
2018-07-31T08:48:52.528Z,101853.82
2018-07-31T08:51:23.868Z,101841.75
2018-07-31T08:53:56.722Z,101838.58
2018-07-31T08:56:28.153Z,101845.97
2018-07-31T08:59:01.021Z,101840.37
2018-07-31T09:01:31.854Z,101815.50
2018-07-31T09:04:03.288Z,101822.98
2018-07-31T09:06:34.653Z,101835.84
2018-07-31T09:09:09.898Z,101825.38
2018-07-31T09:11:39.788Z,101806.72
2018-07-31T09:14:11.446Z,101798.52
2018-07-31T09:16:41.751Z,101806.39
2018-07-31T09:19:14.592Z,101806.02
2018-07-31T09:21:46.013Z,101818.52
2018-07-31T09:24:18.880Z,101806.81
2018-07-31T09:26:51.766Z,101801.57
2018-07-31T09:29:24.639Z,101800.75
2018-07-31T09:31:58.867Z,101784.30
2018-07-31T09:34:31.172Z,101791.36
2018-07-31T09:37:02.613Z,101816.52
2018-07-31T09:39:33.998Z,101805.73
2018-07-31T09:42:05.329Z,101800.86
2018-07-31T09:44:36.822Z,101787.51
2018-07-31T09:47:10.417Z,101793.11
2018-07-31T09:49:42.253Z,101798.51
2018-07-31T09:52:14.608Z,101806.81
2018-07-31T09:54:46.824Z,101796.34
2018-07-31T09:57:16.807Z,101805.86
2018-07-31T09:59:48.231Z,101821.58
2018-07-31T10:02:19.708Z,101820.22
2018-07-31T10:04:51.138Z,101825.78
2018-07-31T10:07:22.488Z,101835.12
2018-07-31T10:09:55.037Z,101863.45
2018-07-31T10:12:26.475Z,101866.86
2018-07-31T10:14:57.888Z,101836.31
2018-07-31T10:17:29.991Z,101817.08
2018-07-31T10:20:04.319Z,101830.84
2018-07-31T10:22:37.263Z,101804.76
2018-07-31T10:25:08.960Z,101817.89
2018-07-31T10:27:40.361Z,101836.89
2018-07-31T10:30:11.984Z,101846.24
2018-07-31T10:32:44.795Z,101858.04
2018-07-31T10:35:16.217Z,101874.77
2018-07-31T10:37:47.736Z,101880.13
2018-07-31T10:40:19.244Z,101866.88
2018-07-31T10:42:52.155Z,101873.41
2018-07-31T10:45:26.501Z,101882.61
2018-07-31T10:47:58.764Z,101868.11
2018-07-31T10:50:30.220Z,101855.12
2018-07-31T10:53:03.157Z,101847.05
2018-07-31T10:55:34.567Z,101859.50
2018-07-31T10:58:08.845Z,101893.61
2018-07-31T11:00:38.894Z,101886.27
2018-07-31T11:03:10.552Z,101876.14
2018-07-31T11:05:41.924Z,101864.61
2018-07-31T11:08:14.742Z,101881.17
2018-07-31T11:10:47.579Z,101870.38
2018-07-31T11:13:18.967Z,101896.61
2018-07-31T11:15:52.168Z,101896.45
2018-07-31T11:18:25.022Z,101886.34
2018-07-31T11:20:56.699Z,101884.27
2018-07-31T11:23:30.942Z,101895.72
2018-07-31T11:26:02.400Z,101934.27
2018-07-31T11:28:33.728Z,101931.20
2018-07-31T11:31:05.265Z,101930.44
2018-07-31T11:33:38.767Z,101930.80
2018-07-31T11:36:11.817Z,101916.12
2018-07-31T11:38:43.656Z,101916.22
2018-07-31T11:41:13.582Z,101931.91
2018-07-31T11:43:44.731Z,101939.25
2018-07-31T11:46:16.611Z,101923.77
2018-07-31T11:48:49.480Z,101935.16
2018-07-31T11:51:19.859Z,101973.55
2018-07-31T11:53:50.361Z,101960.77
2018-07-31T11:56:20.536Z,101960.48
2018-07-31T11:58:55.289Z,101944.92
2018-07-31T12:01:28.427Z,101952.34
2018-07-31T12:03:59.813Z,101977.05
2018-07-31T12:06:31.260Z,101962.30
2018-07-31T12:09:06.423Z,101959.52
2018-07-31T12:11:39.274Z,101956.73
2018-07-31T12:14:13.550Z,101965.73
2018-07-31T12:16:44.500Z,101968.13
2018-07-31T12:19:15.984Z,101969.88
2018-07-31T12:21:47.462Z,101962.75
2018-07-31T12:24:19.112Z,101965.14
2018-07-31T12:26:50.529Z,101968.12
2018-07-31T12:29:22.293Z,101986.94
2018-07-31T12:31:55.335Z,101960.52
2018-07-31T12:34:25.966Z,101976.64
2018-07-31T12:36:58.070Z,101971.38
2018-07-31T12:39:30.313Z,101979.55
2018-07-31T12:42:00.240Z,101989.15
2018-07-31T12:44:33.288Z,101974.10
2018-07-31T12:47:06.184Z,101980.37
2018-07-31T12:49:37.608Z,101983.61
2018-07-31T12:52:09.171Z,101970.59
2018-07-31T12:54:40.635Z,101980.84
2018-07-31T12:57:13.486Z,101981.82
2018-07-31T12:59:44.994Z,101981.84
2018-07-31T13:02:18.334Z,101987.66
2018-07-31T13:04:50.182Z,101987.34
2018-07-31T13:07:21.039Z,101986.23
2018-07-31T13:09:54.115Z,101993.19
2018-07-31T13:12:24.633Z,101993.38
2018-07-31T13:14:57.613Z,101990.88
2018-07-31T13:17:29.537Z,101989.56
2018-07-31T13:20:02.503Z,101990.74
2018-07-31T13:22:34.740Z,101988.22
2018-07-31T13:25:08.161Z,101994.70
2018-07-31T13:27:42.788Z,101989.34
2018-07-31T13:30:15.851Z,101997.14
2018-07-31T13:32:45.715Z,101999.53
2018-07-31T13:35:18.886Z,102010.48
2018-07-31T13:37:51.591Z,102003.33
2018-07-31T13:40:24.605Z,102004.27
2018-07-31T13:42:55.291Z,102000.57
2018-07-31T13:45:26.576Z,102012.30
2018-07-31T13:47:57.955Z,102008.39
2018-07-31T13:50:27.852Z,102001.25
2018-07-31T13:53:00.722Z,101991.98
2018-07-31T13:55:33.800Z,102006.45
2018-07-31T13:58:05.094Z,102022.40
2018-07-31T14:00:39.471Z,102014.55
2018-07-31T14:03:10.853Z,102008.55
2018-07-31T14:05:42.368Z,102005.01
2018-07-31T14:08:14.057Z,102004.98
2018-07-31T14:10:44.021Z,102010.54
2018-07-31T14:13:15.857Z,102021.55
2018-07-31T14:15:48.500Z,102014.27
2018-07-31T14:18:20.889Z,102013.17
2018-07-31T14:20:53.235Z,102012.86
2018-07-31T14:23:25.906Z,102028.97
2018-07-31T14:26:00.192Z,102015.38
2018-07-31T14:28:30.158Z,102029.11
2018-07-31T14:31:02.995Z,102026.81
2018-07-31T14:33:36.384Z,102021.23
2018-07-31T14:36:07.934Z,102021.50
2018-07-31T14:38:40.388Z,102026.22
2018-07-31T14:41:11.781Z,102026.81
2018-07-31T14:43:44.734Z,102017.77
2018-07-31T14:46:17.071Z,102011.37
2018-07-31T14:48:46.982Z,102016.13
2018-07-31T14:51:19.165Z,102025.30
2018-07-31T14:53:50.651Z,102025.12
2018-07-31T14:56:20.629Z,102017.80
2018-07-31T14:58:49.673Z,102024.84
2018-07-31T15:01:22.554Z,102029.61
2018-07-31T15:03:55.551Z,102036.33
2018-07-31T15:06:26.925Z,102044.78
2018-07-31T15:08:58.436Z,102044.89
2018-07-31T15:11:32.779Z,102034.46
2018-07-31T15:14:04.714Z,102031.10
2018-07-31T15:16:36.164Z,102036.25
2018-07-31T15:19:07.611Z,102033.23
2018-07-31T15:21:39.051Z,102036.63
2018-07-31T15:24:09.022Z,102029.39
2018-07-31T15:26:40.407Z,102032.25
2018-07-31T15:29:13.224Z,102036.23
2018-07-31T15:31:44.695Z,102051.06
2018-07-31T15:34:15.270Z,102043.28
2018-07-31T15:36:45.690Z,102035.70
2018-07-31T15:39:18.557Z,102033.05
2018-07-31T15:41:48.027Z,102058.81
2018-07-31T15:44:21.694Z,102049.00
2018-07-31T15:46:54.485Z,102057.09
2018-07-31T15:49:26.009Z,102051.77
2018-07-31T15:51:55.958Z,102048.27
2018-07-31T15:54:28.718Z,102051.22
2018-07-31T15:57:00.160Z,102062.34
2018-07-31T15:59:33.020Z,102065.55
2018-07-31T16:02:04.535Z,102056.86
2018-07-31T16:04:38.272Z,102063.04
2018-07-31T16:07:11.208Z,102060.11
2018-07-31T16:09:41.596Z,102050.32
2018-07-31T16:12:13.600Z,102063.77
2018-07-31T16:14:45.300Z,102058.92
2018-07-31T16:17:17.995Z,102059.16
2018-07-31T16:19:49.366Z,102055.12
2018-07-31T16:22:21.197Z,102069.48
2018-07-31T16:24:53.216Z,102067.41
2018-07-31T16:27:25.979Z,102056.90
2018-07-31T16:29:57.832Z,102068.09
2018-07-31T16:32:29.298Z,102072.78
2018-07-31T16:35:01.119Z,102066.60
2018-07-31T16:37:32.503Z,102073.09
2018-07-31T16:40:04.061Z,102074.03
2018-07-31T16:42:35.969Z,102075.77
2018-07-31T16:45:07.529Z,102076.79
2018-07-31T16:47:39.939Z,102075.57
2018-07-31T16:50:10.302Z,102072.07
2018-07-31T16:52:43.360Z,102085.50
2018-07-31T16:55:16.177Z,102085.73
2018-07-31T16:57:49.038Z,102085.42
2018-07-31T17:00:22.405Z,102097.91
2018-07-31T17:02:55.353Z,102087.94
2018-07-31T17:05:26.996Z,102095.81
2018-07-31T17:07:56.952Z,102100.00
2018-07-31T17:10:28.481Z,102112.91
2018-07-31T17:13:01.494Z,102111.34
2018-07-31T17:15:33.025Z,102119.53
2018-07-31T17:18:06.807Z,102105.99
2018-07-31T17:20:37.728Z,102126.28
2018-07-31T17:23:10.619Z,102121.52
2018-07-31T17:25:42.026Z,102129.38
2018-07-31T17:28:12.336Z,102119.88
2018-07-31T17:30:43.774Z,102127.38
2018-07-31T17:33:13.682Z,102119.59
2018-07-31T17:35:46.934Z,102142.36
2018-07-31T17:38:20.071Z,102128.88
2018-07-31T17:40:54.492Z,102131.52
2018-07-31T17:43:27.401Z,102142.59
2018-07-31T17:45:58.760Z,102143.88
2018-07-31T17:48:28.692Z,102145.78
2018-07-31T17:50:59.092Z,102147.22
2018-07-31T17:53:29.490Z,102147.88
2018-07-31T17:56:01.381Z,102157.53
2018-07-31T17:58:31.810Z,102160.41
2018-07-31T18:01:02.173Z,102153.58
2018-07-31T18:03:35.470Z,102162.09
2018-07-31T18:06:08.353Z,102159.95
2018-07-31T18:08:38.957Z,102156.33
2018-07-31T18:11:10.579Z,102162.73
2018-07-31T18:13:42.047Z,102161.56
2018-07-31T18:16:14.832Z,102163.49
2018-07-31T18:18:44.774Z,102174.79
2018-07-31T18:21:14.657Z,102174.09
2018-07-31T18:23:44.658Z,102178.80
2018-07-31T18:26:14.539Z,102191.88
2018-07-31T18:28:48.853Z,102182.44
2018-07-31T18:31:21.803Z,102193.53
2018-07-31T18:33:54.581Z,102191.04
2018-07-31T18:36:28.027Z,102189.75
2018-07-31T18:38:59.003Z,102210.11
2018-07-31T18:41:30.405Z,102207.55
2018-07-31T18:44:00.677Z,102215.31
2018-07-31T18:46:32.980Z,102215.20
2018-07-31T18:49:04.544Z,102212.08
2018-07-31T18:51:36.192Z,102212.50
2018-07-31T18:54:07.935Z,102223.84
2018-07-31T18:56:39.668Z,102232.59
2018-07-31T18:59:10.086Z,102232.62
2018-07-31T19:01:41.634Z,102238.42
2018-07-31T19:04:15.185Z,102238.55
2018-07-31T19:06:45.635Z,102241.78
2018-07-31T19:09:18.643Z,102247.66
2018-07-31T19:11:50.138Z,102258.13
2018-07-31T19:14:23.149Z,102264.06
2018-07-31T19:16:53.264Z,102268.18
2018-07-31T19:19:26.436Z,102274.33
2018-07-31T19:21:58.198Z,102282.84
2018-07-31T19:24:33.556Z,102283.05
2018-07-31T19:27:04.979Z,102292.62
2018-07-31T19:29:37.971Z,102304.66
2018-07-31T19:32:09.122Z,102305.66
2018-07-31T19:34:42.474Z,102308.38
2018-07-31T19:37:13.189Z,102312.78
2018-07-31T19:39:45.374Z,102312.44
2018-07-31T19:42:16.838Z,102311.61
2018-07-31T19:44:47.129Z,102316.99
2018-07-31T19:47:18.516Z,102327.85
2018-07-31T19:49:49.935Z,102323.86
2018-07-31T19:52:21.597Z,102328.52
2018-07-31T19:54:54.533Z,102329.51
2018-07-31T19:57:28.902Z,102334.70
2018-07-31T20:00:02.499Z,102333.88
2018-07-31T20:02:34.986Z,102336.86
2018-07-31T20:05:04.946Z,102338.77
2018-07-31T20:07:35.654Z,102347.83
2018-07-31T20:10:07.633Z,102348.87
2018-07-31T20:12:37.610Z,102351.72
2018-07-31T20:15:10.796Z,102356.77
2018-07-31T20:17:40.722Z,102367.49
2018-07-31T20:20:10.770Z,102366.63
2018-07-31T20:22:42.223Z,102367.14
2018-07-31T20:25:14.258Z,102367.05
2018-07-31T20:27:47.183Z,102383.45
2018-07-31T20:30:20.350Z,102380.00
2018-07-31T20:32:50.784Z,102388.82
2018-07-31T20:35:21.896Z,102393.75
2018-07-31T20:37:53.305Z,102398.48
2018-07-31T20:40:25.128Z,102401.20
2018-07-31T20:42:56.632Z,102405.55
2018-07-31T20:45:28.337Z,102408.14
2018-07-31T20:48:00.392Z,102412.77
2018-07-31T20:50:31.876Z,102420.38
2018-07-31T20:53:03.978Z,102420.64
2018-07-31T20:55:36.270Z,102413.63
2018-07-31T20:58:07.944Z,102413.73
2018-07-31T21:00:42.744Z,102410.53
2018-07-31T21:03:15.883Z,102410.28
2018-07-31T21:05:47.258Z,102412.34
2018-07-31T21:08:17.230Z,102421.95
2018-07-31T21:10:49.409Z,102427.23
2018-07-31T21:13:22.671Z,102419.64
2018-07-31T21:15:55.628Z,102430.09
2018-07-31T21:18:28.837Z,102427.01
2018-07-31T21:21:03.235Z,102432.03
2018-07-31T21:23:36.101Z,102430.58
2018-07-31T21:26:09.350Z,102438.55
2018-07-31T21:28:40.810Z,102448.36
2018-07-31T21:31:12.275Z,102450.39
2018-07-31T21:33:43.763Z,102452.44
2018-07-31T21:36:15.235Z,102463.09
2018-07-31T21:38:46.675Z,102456.23
2018-07-31T21:41:18.289Z,102457.89
2018-07-31T21:43:53.018Z,102461.52
2018-07-31T21:46:25.940Z,102466.63
2018-07-31T21:48:58.858Z,102476.97
2018-07-31T21:51:31.855Z,102464.63
2018-07-31T21:54:04.803Z,102455.48
2018-07-31T21:56:36.504Z,102456.36
2018-07-31T21:59:07.872Z,102453.65
2018-07-31T22:01:39.407Z,102449.80
2018-07-31T22:04:11.293Z,102469.50
2018-07-31T22:06:41.059Z,102478.63
2018-07-31T22:09:12.780Z,102482.84
2018-07-31T22:11:47.372Z,102488.55
2018-07-31T22:14:19.240Z,102494.55
2018-07-31T22:16:52.280Z,102499.70
2018-07-31T22:19:23.690Z,102498.44
2018-07-31T22:21:55.201Z,102501.75
2018-07-31T22:24:25.927Z,102509.12
2018-07-31T22:26:56.889Z,102524.45
2018-07-31T22:29:28.327Z,102504.31
2018-07-31T22:32:01.339Z,102515.65
2018-07-31T22:34:32.853Z,102511.55
2018-07-31T22:37:04.326Z,102515.11
2018-07-31T22:39:36.708Z,102508.63
2018-07-31T22:42:09.631Z,102505.02
2018-07-31T22:44:39.682Z,102497.16
2018-07-31T22:47:12.847Z,102492.84
2018-07-31T22:49:44.629Z,102497.33
2018-07-31T22:52:16.091Z,102501.81
2018-07-31T22:54:47.641Z,102507.89
2018-07-31T22:57:20.418Z,102505.11
2018-07-31T22:59:51.320Z,102505.28
2018-07-31T23:02:21.885Z,102503.97
2018-07-31T23:04:55.196Z,102503.88
2018-07-31T23:07:28.232Z,102495.57
2018-07-31T23:10:08.062Z,102511.25
2018-07-31T23:12:39.584Z,102510.57
2018-07-31T23:15:14.320Z,102498.98
2018-07-31T23:17:47.349Z,102491.91
2018-07-31T23:20:21.260Z,102502.06
2018-07-31T23:22:55.105Z,102520.66
2018-07-31T23:25:26.702Z,102513.89
2018-07-31T23:27:58.632Z,102519.31
2018-07-31T23:30:33.593Z,102526.27
2018-07-31T23:33:06.627Z,102526.23
2018-07-31T23:35:38.113Z,102527.44
2018-07-31T23:38:10.546Z,102539.45
2018-07-31T23:40:42.154Z,102544.80
2018-07-31T23:43:13.909Z,102535.11
2018-07-31T23:45:44.020Z,102517.05
2018-07-31T23:48:16.944Z,102520.84
2018-07-31T23:50:48.491Z,102531.35
2018-07-31T23:53:19.981Z,102522.83
2018-07-31T23:55:52.922Z,102530.83
2018-07-31T23:58:25.843Z,102526.67
